Погода:Россия/Московская область/Москва/Источники/OpenWeatherMap/1: различия между версиями

Материал из Онлайн справочника
Перейти к навигации Перейти к поиску

(Новая страница: «{{Погода/Панель перехода}} {{Перевод от Сubewriter}} {{Myagkij-редактор}} =Данные<ref>[https://openweathermap.org/his...»)
 
(нет различий)

Текущая версия на 18:35, 22 марта 2020

Перевод: Максим Кузьмин (Cubewriter) Перевел 743018 статей для сайта.</br>Контакты:</br>* Skype: cubewriter</br>* E-mail: cubewriter@gmail.com</br>* Максим Кузьмин на freelance.ru
Проверка/Оформление/Редактирование: Мякишев Е.А.


Данные[1]

 ВремяТемператураЭто свойство относится к числу специальных свойств данного вики-сайта.Максимальная температура на данный моментМинимальная температура на данный моментСкорость ветраПасмурностьВлажностьАтмосферное давление относительно уровня моряМетеорологическое направление ветраОписание погодного условия
Россия/Московская область/Москва/Источники/OpenWeatherMap/1/28399680022 сентября 772844 12:00:00-34,2 °C238,95 K <br />-29,56 °F <br />430,11 °R <br />-33 °C240,15 K <br />-27,4 °F <br />432,27 °R <br />-36,36 °C236,79 K <br />-33,448 °F <br />426,222 °R <br />1,79 м/с20 %74 %1020 гПа125 градус(градусов)Дымка
Россия/Московская область/Москва/Источники/OpenWeatherMap/1/2840004001 августа 772854 12:00:00-34,32 °C238,83 K <br />-29,776 °F <br />429,894 °R <br />-33 °C240,15 K <br />-27,4 °F <br />432,27 °R <br />-36 °C237,15 K <br />-32,8 °F <br />426,87 °R <br />2,17 м/с20 %74 %1020 гПа125 градус(градусов)Дымка
Россия/Московская область/Москва/Источники/OpenWeatherMap/1/2840040009 июня 772864 12:00:00-34,83 °C238,32 K <br />-30,694 °F <br />428,976 °R <br />-33,63 °C239,52 K <br />-28,534 °F <br />431,136 °R <br />-36 °C237,15 K <br />-32,8 °F <br />426,87 °R <br />2,57 м/с100 %66 %1018 гПа132 градус(градусов)Дымка
Россия/Московская область/Москва/Источники/OpenWeatherMap/1/28400760018 апреля 772874 12:00:00-33,61 °C239,54 K <br />-28,498 °F <br />431,172 °R <br />-30,86 °C242,29 K <br />-23,548 °F <br />436,122 °R <br />-35 °C238,15 K <br />-31 °F <br />428,67 °R <br />2,58 м/с100 %73 %1017 гПа119 градус(градусов)Дымка
Россия/Московская область/Москва/Источники/OpenWeatherMap/1/28401120025 февраля 772884 12:00:00-32,83 °C240,32 K <br />-27,094 °F <br />432,576 °R <br />-30,53 °C242,62 K <br />-22,954 °F <br />436,716 °R <br />-35 °C238,15 K <br />-31 °F <br />428,67 °R <br />2 м/с100 %67 %1017 гПа150 градус(градусов)Дымка
Россия/Московская область/Москва/Источники/OpenWeatherMap/1/2840148003 января 772894 12:00:00-31 °C242,15 K <br />-23,8 °F <br />435,87 °R <br />-28 °C245,15 K <br />-18,4 °F <br />441,27 °R <br />-35 °C238,15 K <br />-31 °F <br />428,67 °R <br />3 м/с40 %68 %1017 гПа90 градус(градусов)Дымка
Россия/Московская область/Москва/Источники/OpenWeatherMap/1/28401840013 ноября 772903 12:00:00-30,49 °C242,66 K <br />-22,882 °F <br />436,788 °R <br />-28 °C245,15 K <br />-18,4 °F <br />441,27 °R <br />-34 °C239,15 K <br />-29,2 °F <br />430,47 °R <br />3 м/с40 %68 %1017 гПа90 градус(градусов)Дымка
Россия/Московская область/Москва/Источники/OpenWeatherMap/1/28402200021 сентября 772913 12:00:00-30,36 °C242,79 K <br />-22,648 °F <br />437,022 °R <br />-28 °C245,15 K <br />-18,4 °F <br />441,27 °R <br />-34 °C239,15 K <br />-29,2 °F <br />430,47 °R <br />3 м/с40 %68 %1016 гПа90 градус(градусов)Дымка
Россия/Московская область/Москва/Источники/OpenWeatherMap/1/28402560031 июля 772923 12:00:00-30,87 °C242,28 K <br />-23,566 °F <br />436,104 °R <br />-28 °C245,15 K <br />-18,4 °F <br />441,27 °R <br />-33 °C240,15 K <br />-27,4 °F <br />432,27 °R <br />3 м/с100 %68 %1015 гПа110 градус(градусов)Сплошная облачность: 85-100%
Россия/Московская область/Москва/Источники/OpenWeatherMap/1/2840292008 июня 772933 12:00:00-29,76 °C243,39 K <br />-21,568 °F <br />438,102 °R <br />-27 °C246,15 K <br />-16,6 °F <br />443,07 °R <br />-32 °C241,15 K <br />-25,6 °F <br />434,07 °R <br />3 м/с79 %75 %1015 гПа110 градус(градусов)Повышенная облачность: 51-84%
Россия/Московская область/Москва/Источники/OpenWeatherMap/1/28403280017 апреля 772943 12:00:00-26,93 °C246,22 K <br />-16,474 °F <br />443,196 °R <br />-25 °C248,15 K <br />-13 °F <br />446,67 °R <br />-29 °C244,15 K <br />-20,2 °F <br />439,47 °R <br />5,1 м/с100 %69 %1013 гПа80 градус(градусов)Сплошная облачность: 85-100%
Россия/Московская область/Москва/Источники/OpenWeatherMap/1/28403640023 февраля 772953 12:00:00-26,16 °C246,99 K <br />-15,088 °F <br />444,582 °R <br />-24 °C249,15 K <br />-11,2 °F <br />448,47 °R <br />-29 °C244,15 K <br />-20,2 °F <br />439,47 °R <br />5 м/с40 %69 %1013 гПа90 градус(градусов)Дымка
Россия/Московская область/Москва/Источники/OpenWeatherMap/1/2840400002 января 772963 12:00:00-25,62 °C247,53 K <br />-14,116 °F <br />445,554 °R <br />-24 °C249,15 K <br />-11,2 °F <br />448,47 °R <br />-28 °C245,15 K <br />-18,4 °F <br />441,27 °R <br />5 м/с40 %69 %1013 гПа90 градус(градусов)Дымка
Россия/Московская область/Москва/Источники/OpenWeatherMap/1/28404360010 ноября 772972 12:00:00-25,39 °C247,76 K <br />-13,702 °F <br />445,968 °R <br />-24 °C249,15 K <br />-11,2 °F <br />448,47 °R <br />-27 °C246,15 K <br />-16,6 °F <br />443,07 °R <br />5 м/с40 %69 %1013 гПа90 градус(градусов)Дымка
Россия/Московская область/Москва/Источники/OpenWeatherMap/1/28404720019 сентября 772982 12:00:00-25,73 °C247,42 K <br />-14,314 °F <br />445,356 °R <br />-25 °C248,15 K <br />-13 °F <br />446,67 °R <br />-26,55 °C246,6 K <br />-15,79 °F <br />443,88 °R <br />5,1 м/с100 %69 %1011 гПа90 градус(градусов)Дымка
Россия/Московская область/Москва/Источники/OpenWeatherMap/1/28405080028 июля 772992 12:00:00-25,14 °C248,01 K <br />-13,252 °F <br />446,418 °R <br />-23,99 °C249,16 K <br />-11,182 °F <br />448,488 °R <br />-26 °C247,15 K <br />-14,8 °F <br />444,87 °R <br />5,1 м/с100 %69 %1011 гПа70 градус(градусов)Легкий снег
Россия/Московская область/Москва/Источники/OpenWeatherMap/1/2840544007 июня 773002 12:00:00-24,78 °C248,37 K <br />-12,604 °F <br />447,066 °R <br />-23,87 °C249,28 K <br />-10,966 °F <br />448,704 °R <br />-25 °C248,15 K <br />-13 °F <br />446,67 °R <br />6,1 м/с100 %69 %1011 гПа90 градус(градусов)Дымка
Россия/Московская область/Москва/Источники/OpenWeatherMap/1/28405800015 апреля 773012 12:00:00-24,55 °C248,6 K <br />-12,19 °F <br />447,48 °R <br />-24 °C249,15 K <br />-11,2 °F <br />448,47 °R <br />-25 °C248,15 K <br />-13 °F <br />446,67 °R <br />5 м/с90 %76 %1012 гПа90 градус(градусов)Легкий снег
Россия/Московская область/Москва/Источники/OpenWeatherMap/1/28406160022 февраля 773022 12:00:00-24,33 °C248,82 K <br />-11,794 °F <br />447,876 °R <br />-24 °C249,15 K <br />-11,2 °F <br />448,47 °R <br />-25 °C248,15 K <br />-13 °F <br />446,67 °R <br />5 м/с90 %76 %1011 гПа90 градус(градусов)Легкий снег
Россия/Московская область/Москва/Источники/OpenWeatherMap/1/2840652001 января 773032 12:00:00-24,36 °C248,79 K <br />-11,848 °F <br />447,822 °R <br />-24 °C249,15 K <br />-11,2 °F <br />448,47 °R <br />-25 °C248,15 K <br />-13 °F <br />446,67 °R <br />5 м/с90 %76 %1011 гПа90 градус(градусов)Легкий снег
Россия/Московская область/Москва/Источники/OpenWeatherMap/1/2840688009 ноября 773041 12:00:00-24,23 °C248,92 K <br />-11,614 °F <br />448,056 °R <br />-24 °C249,15 K <br />-11,2 °F <br />448,47 °R <br />-24,91 °C248,24 K <br />-12,838 °F <br />446,832 °R <br />5,1 м/с100 %69 %1010 гПа70 градус(градусов)Снег
Россия/Московская область/Москва/Источники/OpenWeatherMap/1/28407240018 сентября 773051 12:00:00-24,39 °C248,76 K <br />-11,902 °F <br />447,768 °R <br />-24 °C249,15 K <br />-11,2 °F <br />448,47 °R <br />-25,27 °C247,88 K <br />-13,486 °F <br />446,184 °R <br />5,1 м/с100 %69 %1010 гПа70 градус(градусов)Легкий снег
Россия/Московская область/Москва/Источники/OpenWeatherMap/1/28407600027 июля 773061 12:00:00-23,54 °C249,61 K <br />-10,372 °F <br />449,298 °R <br />-22,57 °C250,58 K <br />-8,626 °F <br />451,044 °R <br />-24 °C249,15 K <br />-11,2 °F <br />448,47 °R <br />5,1 м/с100 %76 %1010 гПа70 градус(градусов)Легкий снег
Россия/Московская область/Москва/Источники/OpenWeatherMap/1/2840796005 июня 773071 12:00:00-23,37 °C249,78 K <br />-10,066 °F <br />449,604 °R <br />-22,57 °C250,58 K <br />-8,626 °F <br />451,044 °R <br />-24 °C249,15 K <br />-11,2 °F <br />448,47 °R <br />6 м/с90 %76 %1011 гПа70 градус(градусов)Легкий снег
Россия/Московская область/Москва/Источники/OpenWeatherMap/1/28408320013 апреля 773081 12:00:00-23,34 °C249,81 K <br />-10,012 °F <br />449,658 °R <br />-22,45 °C250,7 K <br />-8,41 °F <br />451,26 °R <br />-24 °C249,15 K <br />-11,2 °F <br />448,47 °R <br />6 м/с90 %76 %1011 гПа70 градус(градусов)Легкий снег
Россия/Московская область/Москва/Источники/OpenWeatherMap/1/28408680020 февраля 773091 12:00:00-23,29 °C249,86 K <br />-9,922 °F <br />449,748 °R <br />-22,3 °C250,85 K <br />-8,14 °F <br />451,53 °R <br />-24 °C249,15 K <br />-11,2 °F <br />448,47 °R <br />6 м/с90 %76 %1011 гПа70 градус(градусов)Легкий снег
Россия/Московская область/Москва/Источники/OpenWeatherMap/1/28409040030 декабря 773100 12:00:00-22,66 °C250,49 K <br />-8,788 °F <br />450,882 °R <br />-22,18 °C250,97 K <br />-7,924 °F <br />451,746 °R <br />-23 °C250,15 K <br />-9,4 °F <br />450,27 °R <br />7,2 м/с90 %76 %1010 гПа80 градус(градусов)Сплошная облачность: 85-100%
Россия/Московская область/Москва/Источники/OpenWeatherMap/1/2840940008 ноября 773110 12:00:00-22,43 °C250,72 K <br />-8,374 °F <br />451,296 °R <br />-21,13 °C252,02 K <br />-6,034 °F <br />453,636 °R <br />-23 °C250,15 K <br />-9,4 °F <br />450,27 °R <br />5,1 м/с40 %76 %1009 гПа80 градус(градусов)Легкий снег
Россия/Московская область/Москва/Источники/OpenWeatherMap/1/28409760016 сентября 773120 12:00:00-22,17 °C250,98 K <br />-7,906 °F <br />451,764 °R <br />-21,21 °C251,94 K <br />-6,178 °F <br />453,492 °R <br />-23 °C250,15 K <br />-9,4 °F <br />450,27 °R <br />5,1 м/с90 %76 %1009 гПа70 градус(градусов)Легкий снег
Россия/Московская область/Москва/Источники/OpenWeatherMap/1/28410120026 июля 773130 12:00:00-21,48 °C251,67 K <br />-6,664 °F <br />453,006 °R <br />-21 °C252,15 K <br />-5,8 °F <br />453,87 °R <br />-22 °C251,15 K <br />-7,6 °F <br />452,07 °R <br />5 м/с90 %69 %1011 гПа100 градус(градусов)Сплошная облачность: 85-100%
Россия/Московская область/Москва/Источники/OpenWeatherMap/1/2841048003 июня 773140 12:00:00-21,8 °C251,35 K <br />-7,24 °F <br />452,43 °R <br />-21 °C252,15 K <br />-5,8 °F <br />453,87 °R <br />-23 °C250,15 K <br />-9,4 °F <br />450,27 °R <br />5 м/с90 %69 %1010 гПа100 градус(градусов)Сплошная облачность: 85-100%
Россия/Московская область/Москва/Источники/OpenWeatherMap/1/28410840012 апреля 773150 12:00:00-21,48 °C251,67 K <br />-6,664 °F <br />453,006 °R <br />-21 °C252,15 K <br />-5,8 °F <br />453,87 °R <br />-22 °C251,15 K <br />-7,6 °F <br />452,07 °R <br />5 м/с90 %69 %1011 гПа100 градус(градусов)Сплошная облачность: 85-100%
Россия/Московская область/Москва/Источники/OpenWeatherMap/1/28411200019 февраля 773160 12:00:00-21,55 °C251,6 K <br />-6,79 °F <br />452,88 °R <br />-21 °C252,15 K <br />-5,8 °F <br />453,87 °R <br />-22 °C251,15 K <br />-7,6 °F <br />452,07 °R <br />5 м/с90 %76 %1010 гПа60 градус(градусов)Дымка
Россия/Московская область/Москва/Источники/OpenWeatherMap/1/28411560028 декабря 773169 12:00:00-21,68 °C251,47 K <br />-7,024 °F <br />452,646 °R <br />-21 °C252,15 K <br />-5,8 °F <br />453,87 °R <br />-23,05 °C250,1 K <br />-9,49 °F <br />450,18 °R <br />5 м/с90 %76 %1009 гПа60 градус(градусов)Дымка
Россия/Московская область/Москва/Источники/OpenWeatherMap/1/2841192006 ноября 773179 12:00:00-20,79 °C252,36 K <br />-5,422 °F <br />454,248 °R <br />-19,97 °C253,18 K <br />-3,946 °F <br />455,724 °R <br />-21 °C252,15 K <br />-5,8 °F <br />453,87 °R <br />5 м/с90 %76 %1008 гПа60 градус(градусов)Дымка
Россия/Московская область/Москва/Источники/OpenWeatherMap/1/28412280014 сентября 773189 12:00:00-20,07 °C253,08 K <br />-4,126 °F <br />455,544 °R <br />-20 °C253,15 K <br />-4 °F <br />455,67 °R <br />-20,33 °C252,82 K <br />-4,594 °F <br />455,076 °R <br />4 м/с90 %70 %1008 гПа90 градус(градусов)Сплошная облачность: 85-100%
Россия/Московская область/Москва/Источники/OpenWeatherMap/1/28412640024 июля 773199 12:00:00-20,08 °C253,07 K <br />-4,144 °F <br />455,526 °R <br />-20 °C253,15 K <br />-4 °F <br />455,67 °R <br />-20,37 °C252,78 K <br />-4,666 °F <br />455,004 °R <br />4 м/с90 %70 %1008 гПа90 градус(градусов)Сплошная облачность: 85-100%
Россия/Московская область/Москва/Источники/OpenWeatherMap/1/2841300001 июня 773209 12:00:00-20,13 °C253,02 K <br />-4,234 °F <br />455,436 °R <br />-20 °C253,15 K <br />-4 °F <br />455,67 °R <br />-20,55 °C252,6 K <br />-4,99 °F <br />454,68 °R <br />4 м/с90 %70 %1008 гПа90 градус(градусов)Сплошная облачность: 85-100%
Россия/Московская область/Москва/Источники/OpenWeatherMap/1/28413360010 апреля 773219 12:00:00-20,21 °C252,94 K <br />-4,378 °F <br />455,292 °R <br />-20 °C253,15 K <br />-4 °F <br />455,67 °R <br />-20,61 °C252,54 K <br />-5,098 °F <br />454,572 °R <br />3 м/с100 %70 %1007 гПа30 градус(градусов)Дымка
Россия/Московская область/Москва/Источники/OpenWeatherMap/1/28413720016 февраля 773229 12:00:00-21,12 °C252,03 K <br />-6,016 °F <br />453,654 °R <br />-21 °C252,15 K <br />-5,8 °F <br />453,87 °R <br />-21,36 °C251,79 K <br />-6,448 °F <br />453,222 °R <br />3 м/с100 %76 %1007 гПа20 градус(градусов)Дымка
Россия/Московская область/Москва/Источники/OpenWeatherMap/1/28414080026 декабря 773238 12:00:00-21,51 °C251,64 K <br />-6,718 °F <br />452,952 °R <br />-21 °C252,15 K <br />-5,8 °F <br />453,87 °R <br />-22 °C251,15 K <br />-7,6 °F <br />452,07 °R <br />3 м/с100 %76 %1007 гПа20 градус(градусов)Дымка
Россия/Московская область/Москва/Источники/OpenWeatherMap/1/2841444003 ноября 773248 12:00:00-21,94 °C251,21 K <br />-7,492 °F <br />452,178 °R <br />-21,67 °C251,48 K <br />-7,006 °F <br />452,664 °R <br />-22 °C251,15 K <br />-7,6 °F <br />452,07 °R <br />4 м/с40 %76 %1008 гПа60 градус(градусов)Дымка
Россия/Московская область/Москва/Источники/OpenWeatherMap/1/28414800012 сентября 773258 12:00:00-22,1 °C251,05 K <br />-7,78 °F <br />451,89 °R <br />-22 °C251,15 K <br />-7,6 °F <br />452,07 °R <br />-22,4 °C250,75 K <br />-8,32 °F <br />451,35 °R <br />4 м/с40 %76 %1008 гПа60 градус(градусов)Дымка
Россия/Московская область/Москва/Источники/OpenWeatherMap/1/28415160021 июля 773268 12:00:00-22,32 °C250,83 K <br />-8,176 °F <br />451,494 °R <br />-22 °C251,15 K <br />-7,6 °F <br />452,07 °R <br />-23 °C250,15 K <br />-9,4 °F <br />450,27 °R <br />4 м/с40 %76 %1007 гПа60 градус(градусов)Дымка
Россия/Московская область/Москва/Источники/OpenWeatherMap/1/28415520030 мая 773278 12:00:00-22,14 °C251,01 K <br />-7,852 °F <br />451,818 °R <br />-22 °C251,15 K <br />-7,6 °F <br />452,07 °R <br />-22,67 °C250,48 K <br />-8,806 °F <br />450,864 °R <br />4 м/с40 %69 %1008 гПа30 градус(градусов)Незначительная облачность: 25-50%
Россия/Московская область/Москва/Источники/OpenWeatherMap/1/2841588007 апреля 773288 12:00:00-22,88 °C250,27 K <br />-9,184 °F <br />450,486 °R <br />-22 °C251,15 K <br />-7,6 °F <br />452,07 °R <br />-25,68 °C247,47 K <br />-14,224 °F <br />445,446 °R <br />4 м/с40 %69 %1008 гПа30 градус(градусов)Незначительная облачность: 25-50%
Россия/Московская область/Москва/Источники/OpenWeatherMap/1/28416240014 февраля 773298 12:00:00-22,15 °C251 K <br />-7,87 °F <br />451,8 °R <br />-22 °C251,15 K <br />-7,6 °F <br />452,07 °R <br />-22,6 °C250,55 K <br />-8,68 °F <br />450,99 °R <br />4 м/с40 %69 %1008 гПа30 градус(градусов)Незначительная облачность: 25-50%
Россия/Московская область/Москва/Источники/OpenWeatherMap/1/28416600025 декабря 773307 12:00:00-20,85 °C252,3 K <br />-5,53 °F <br />454,14 °R <br />-20 °C253,15 K <br />-4 °F <br />455,67 °R <br />-22,66 °C250,49 K <br />-8,788 °F <br />450,882 °R <br />4 м/с90 %76 %1008 гПа30 градус(градусов)Дымка
Россия/Московская область/Москва/Источники/OpenWeatherMap/1/2841696002 ноября 773317 12:00:00-20,59 °C252,56 K <br />-5,062 °F <br />454,608 °R <br />-20 °C253,15 K <br />-4 °F <br />455,67 °R <br />-22,55 °C250,6 K <br />-8,59 °F <br />451,08 °R <br />4 м/с90 %76 %1008 гПа30 градус(градусов)Дымка
Россия/Московская область/Москва/Источники/OpenWeatherMap/1/28417320011 сентября 773327 12:00:00-20,48 °C252,67 K <br />-4,864 °F <br />454,806 °R <br />-20 °C253,15 K <br />-4 °F <br />455,67 °R <br />-22,09 °C251,06 K <br />-7,762 °F <br />451,908 °R <br />4 м/с90 %76 %1008 гПа30 градус(градусов)Дымка
… следующие результаты

См.также

Внешние ссылки